createdAt,value
2023-03-06T00:02:09.868Z,11.83
2023-03-06T00:04:57.402Z,11.00
2023-03-06T00:07:44.598Z,11.73
2023-03-06T00:10:32.503Z,11.87
2023-03-06T00:13:19.966Z,11.67
2023-03-06T00:16:07.320Z,11.33
2023-03-06T00:18:54.389Z,11.27
2023-03-06T00:21:41.922Z,11.80
2023-03-06T00:24:28.878Z,12.70
2023-03-06T00:27:15.804Z,11.70
2023-03-06T00:30:02.908Z,11.73
2023-03-06T00:32:50.477Z,12.03
2023-03-06T00:35:41.272Z,11.57
2023-03-06T00:38:31.512Z,12.00
2023-03-06T00:41:18.523Z,10.90
2023-03-06T00:44:05.520Z,11.50
2023-03-06T00:46:52.470Z,11.37
2023-03-06T00:49:39.594Z,11.23
2023-03-06T00:52:26.602Z,11.47
2023-03-06T00:55:13.662Z,11.57
2023-03-06T00:58:00.869Z,11.37
2023-03-06T01:00:48.403Z,11.93
2023-03-06T01:03:35.404Z,11.63
2023-03-06T01:06:22.365Z,11.57
2023-03-06T01:09:09.361Z,11.90
2023-03-06T01:11:56.409Z,11.20
2023-03-06T01:14:43.382Z,10.90
2023-03-06T01:17:30.328Z,12.63
2023-03-06T01:20:18.309Z,11.67
2023-03-06T01:23:05.316Z,11.63
2023-03-06T01:25:52.277Z,11.50
2023-03-06T01:28:40.653Z,10.83
2023-03-06T01:31:27.733Z,11.70
2023-03-06T01:34:14.886Z,10.03
2023-03-06T01:37:01.800Z,10.90
2023-03-06T01:39:48.932Z,11.47
2023-03-06T01:42:35.975Z,12.00
2023-03-06T01:45:22.802Z,12.13
2023-03-06T01:48:09.773Z,10.93
2023-03-06T01:50:56.846Z,10.60
2023-03-06T01:53:45.939Z,10.57
2023-03-06T01:56:33.502Z,11.80
2023-03-06T01:59:22.066Z,10.77
2023-03-06T02:02:11.778Z,10.87
2023-03-06T02:04:59.826Z,10.03
2023-03-06T02:07:47.349Z,10.77
2023-03-06T02:10:34.589Z,11.30
2023-03-06T02:13:21.655Z,11.20
2023-03-06T02:16:13.629Z,10.40
2023-03-06T02:19:02.589Z,10.77
2023-03-06T02:21:49.872Z,11.30
2023-03-06T02:24:45.722Z,10.87
2023-03-06T02:27:32.919Z,10.47
2023-03-06T02:30:19.945Z,10.37
2023-03-06T02:33:06.975Z,10.83
2023-03-06T02:35:57.530Z,10.40
2023-03-06T02:38:48.861Z,10.70
2023-03-06T02:41:36.431Z,10.00
2023-03-06T02:44:25.943Z,10.77
2023-03-06T02:47:12.990Z,11.00
2023-03-06T02:50:00.013Z,10.23
2023-03-06T02:52:47.136Z,11.03
2023-03-06T02:55:34.547Z,10.10
2023-03-06T02:58:21.907Z,10.93
2023-03-06T03:01:08.967Z,10.83
2023-03-06T03:03:55.973Z,11.17
2023-03-06T03:06:42.984Z,11.10
2023-03-06T03:09:36.719Z,10.20
2023-03-06T03:12:24.311Z,11.20
2023-03-06T03:15:11.621Z,10.83
2023-03-06T03:17:58.761Z,11.10
2023-03-06T03:20:45.752Z,10.20
2023-03-06T03:23:32.696Z,11.03
2023-03-06T03:26:21.265Z,10.77
2023-03-06T03:29:18.920Z,11.03
2023-03-06T03:32:06.932Z,10.47
2023-03-06T03:34:56.139Z,10.70
2023-03-06T03:37:44.864Z,10.57
2023-03-06T03:40:32.462Z,10.80
2023-03-06T03:43:20.113Z,9.73
2023-03-06T03:46:07.163Z,11.33
2023-03-06T03:48:54.623Z,9.60
2023-03-06T03:51:41.728Z,11.33
2023-03-06T03:54:29.186Z,10.60
2023-03-06T03:57:16.745Z,10.87
2023-03-06T04:00:11.948Z,10.60
2023-03-06T04:03:05.423Z,10.27
2023-03-06T04:05:57.998Z,11.23
2023-03-06T04:08:45.729Z,11.03
2023-03-06T04:11:33.112Z,11.13
2023-03-06T04:14:20.786Z,11.37
2023-03-06T04:17:08.508Z,10.97
2023-03-06T04:19:55.546Z,11.30
2023-03-06T04:22:43.170Z,10.53
2023-03-06T04:25:31.309Z,11.30
2023-03-06T04:28:20.512Z,10.80
2023-03-06T04:31:07.560Z,11.13
2023-03-06T04:33:55.479Z,10.80
2023-03-06T04:36:45.184Z,11.10
2023-03-06T04:39:33.725Z,9.97
2023-03-06T04:42:20.819Z,11.00
2023-03-06T04:45:08.575Z,11.03
2023-03-06T04:47:56.132Z,11.10
2023-03-06T04:50:44.745Z,10.97
2023-03-06T04:53:32.781Z,10.87
2023-03-06T04:56:19.743Z,11.97
2023-03-06T04:59:06.807Z,10.90
2023-03-06T05:01:53.760Z,11.40
2023-03-06T05:04:40.740Z,10.97
2023-03-06T05:07:27.704Z,11.60
2023-03-06T05:10:16.898Z,11.07
2023-03-06T05:13:03.844Z,11.27
2023-03-06T05:15:51.145Z,11.37
2023-03-06T05:18:38.179Z,11.47
2023-03-06T05:21:25.078Z,11.20
2023-03-06T05:24:12.043Z,11.47
2023-03-06T05:26:59.009Z,11.00
2023-03-06T05:29:45.941Z,11.10
2023-03-06T05:32:35.472Z,10.77
2023-03-06T05:35:23.713Z,10.77
2023-03-06T05:38:10.704Z,10.90
2023-03-06T05:40:57.709Z,11.40
2023-03-06T05:43:44.614Z,12.07
2023-03-06T05:46:31.537Z,12.30
2023-03-06T05:49:18.562Z,12.67
2023-03-06T05:52:06.805Z,12.07
2023-03-06T05:54:54.882Z,11.90
2023-03-06T05:57:42.200Z,11.13
2023-03-06T06:00:29.239Z,11.73
2023-03-06T06:03:16.198Z,11.07
2023-03-06T06:06:10.689Z,11.13
2023-03-06T06:08:57.673Z,10.93
2023-03-06T06:11:44.685Z,10.53
2023-03-06T06:14:34.440Z,11.13
2023-03-06T06:17:21.458Z,10.63
2023-03-06T06:20:09.091Z,11.50
2023-03-06T06:22:56.284Z,11.37
2023-03-06T06:25:43.283Z,12.10
2023-03-06T06:28:30.706Z,11.73
2023-03-06T06:31:17.745Z,11.47
2023-03-06T06:34:05.991Z,12.50
2023-03-06T06:36:54.460Z,11.80
2023-03-06T06:39:41.549Z,11.80
2023-03-06T06:42:36.933Z,12.70
2023-03-06T06:45:25.580Z,12.33
2023-03-06T06:48:12.632Z,10.73
2023-03-06T06:51:00.270Z,11.90
2023-03-06T06:53:47.409Z,11.17
2023-03-06T06:56:34.653Z,12.17
2023-03-06T06:59:23.596Z,11.27
2023-03-06T07:02:12.515Z,10.73
2023-03-06T07:05:05.111Z,10.30
2023-03-06T07:07:52.522Z,10.23
2023-03-06T07:10:39.550Z,11.13
2023-03-06T07:13:26.562Z,11.57
2023-03-06T07:16:13.763Z,11.97
2023-03-06T07:19:00.737Z,11.13
2023-03-06T07:21:47.703Z,11.60
2023-03-06T07:24:34.721Z,11.10
2023-03-06T07:27:23.642Z,12.70
2023-03-06T07:30:12.801Z,12.77
2023-03-06T07:33:00.027Z,13.00
2023-03-06T07:35:47.087Z,12.43
2023-03-06T07:38:34.034Z,11.63
2023-03-06T07:41:22.591Z,12.17
2023-03-06T07:44:09.735Z,12.23
2023-03-06T07:46:56.756Z,13.67
2023-03-06T07:49:43.790Z,13.43
2023-03-06T07:52:30.727Z,14.20
2023-03-06T07:55:17.914Z,13.93
2023-03-06T07:58:04.842Z,12.87
2023-03-06T08:00:51.972Z,13.57
2023-03-06T08:03:39.337Z,13.30
2023-03-06T08:06:27.701Z,12.67
2023-03-06T08:09:14.657Z,13.90
2023-03-06T08:12:01.889Z,14.53
2023-03-06T08:14:48.837Z,14.10
2023-03-06T08:17:35.780Z,14.13
2023-03-06T08:20:22.761Z,13.50
2023-03-06T08:23:09.683Z,13.07
2023-03-06T08:25:58.319Z,13.27
2023-03-06T08:28:45.889Z,13.27
2023-03-06T08:31:37.012Z,13.60
2023-03-06T08:34:25.491Z,12.67
2023-03-06T08:37:12.507Z,13.20
2023-03-06T08:39:59.587Z,13.33
2023-03-06T08:42:47.780Z,13.30
2023-03-06T08:45:34.787Z,13.60
2023-03-06T08:48:21.809Z,12.97
2023-03-06T08:51:10.013Z,13.13
2023-03-06T08:53:58.038Z,13.53
2023-03-06T08:56:45.008Z,12.83
2023-03-06T08:59:31.981Z,13.33
2023-03-06T09:02:18.933Z,13.37
2023-03-06T09:05:07.912Z,13.13
2023-03-06T09:07:55.057Z,12.37
2023-03-06T09:10:46.738Z,14.03
2023-03-06T09:13:33.725Z,13.47
2023-03-06T09:16:21.275Z,12.40
2023-03-06T09:19:08.418Z,13.07
2023-03-06T09:21:57.734Z,12.83
2023-03-06T09:24:44.800Z,12.73
2023-03-06T09:27:31.883Z,12.77
2023-03-06T09:30:19.023Z,12.07
2023-03-06T09:33:05.966Z,12.67
2023-03-06T09:35:56.285Z,12.83
2023-03-06T09:38:43.596Z,12.60
2023-03-06T09:41:34.089Z,13.13
2023-03-06T09:44:30.682Z,11.53
2023-03-06T09:47:56.722Z,11.63
2023-03-06T09:50:55.188Z,11.30
2023-03-06T09:53:45.175Z,10.83
2023-03-06T09:56:35.701Z,12.23
2023-03-06T09:59:25.541Z,11.50
2023-03-06T10:02:22.844Z,11.03
2023-03-06T10:05:35.885Z,11.93
2023-03-06T10:08:31.589Z,11.50
2023-03-06T10:11:26.163Z,10.60
2023-03-06T10:14:37.420Z,11.50
2023-03-06T10:17:34.252Z,12.20
2023-03-06T10:20:26.160Z,11.67
2023-03-06T10:23:38.031Z,11.20
2023-03-06T10:26:29.847Z,11.03
2023-03-06T10:29:31.161Z,9.30
2023-03-06T10:32:46.236Z,10.50
2023-03-06T10:35:47.219Z,11.50
2023-03-06T10:38:38.305Z,12.33
2023-03-06T10:41:32.179Z,11.33
2023-03-06T10:44:21.584Z,10.23
2023-03-06T10:47:38.474Z,11.73
2023-03-06T10:50:30.652Z,10.47
2023-03-06T10:53:31.306Z,10.37
2023-03-06T10:56:40.764Z,9.87
2023-03-06T10:59:30.535Z,10.00
2023-03-06T11:02:31.272Z,10.60
2023-03-06T11:05:20.078Z,8.80
2023-03-06T11:08:22.680Z,10.13
2023-03-06T11:11:14.032Z,9.77
2023-03-06T11:14:00.940Z,8.87
2023-03-06T11:16:53.047Z,9.73
2023-03-06T11:19:39.959Z,9.40
2023-03-06T11:22:26.881Z,9.00
2023-03-06T11:25:18.454Z,8.60
2023-03-06T11:28:17.596Z,9.00
2023-03-06T11:31:16.408Z,8.50
2023-03-06T11:34:12.098Z,8.50
2023-03-06T11:37:08.682Z,8.70
2023-03-06T11:40:04.638Z,8.77
2023-03-06T11:43:25.902Z,9.37
2023-03-06T11:46:23.113Z,8.47
2023-03-06T11:49:32.106Z,9.43
2023-03-06T11:52:29.215Z,9.30
2023-03-06T11:55:25.214Z,10.07
2023-03-06T11:58:18.278Z,9.53
2023-03-06T12:01:39.311Z,9.57
2023-03-06T12:04:49.107Z,9.73
2023-03-06T12:07:48.756Z,9.57
2023-03-06T12:10:51.786Z,9.67
2023-03-06T12:17:03.963Z,9.83
2023-03-06T12:20:19.440Z,9.67
2023-03-06T12:23:36.055Z,8.77
2023-03-06T12:26:31.801Z,8.90
2023-03-06T12:29:38.330Z,8.80
2023-03-06T12:32:31.207Z,9.30
2023-03-06T12:35:30.259Z,9.90
2023-03-06T12:38:37.150Z,9.90
2023-03-06T12:41:33.511Z,9.77
2023-03-06T12:44:42.326Z,9.63
2023-03-06T12:47:32.226Z,10.30
2023-03-06T12:50:24.766Z,9.83
2023-03-06T12:53:16.415Z,9.83
2023-03-06T12:56:04.303Z,9.73
2023-03-06T12:58:56.006Z,9.60
2023-03-06T13:02:13.891Z,9.53
2023-03-06T13:05:04.982Z,9.53
2023-03-06T13:08:10.392Z,9.33
2023-03-06T13:11:28.467Z,9.70
2023-03-06T13:14:24.578Z,8.67
2023-03-06T13:17:38.502Z,8.57
2023-03-06T13:20:27.916Z,9.73
2023-03-06T13:23:33.223Z,9.23
2023-03-06T13:26:25.947Z,9.20
2023-03-06T13:29:37.836Z,8.60
2023-03-06T13:32:32.948Z,9.57
2023-03-06T13:35:35.787Z,9.50
2023-03-06T13:38:39.870Z,9.57
2023-03-06T13:41:35.344Z,12.33
2023-03-06T13:44:25.240Z,10.37
2023-03-06T13:47:29.624Z,10.37
2023-03-06T13:50:25.182Z,9.37
2023-03-06T13:53:17.795Z,9.30
2023-03-06T13:56:37.377Z,8.97
2023-03-06T14:00:14.462Z,9.00
2023-03-06T14:03:10.427Z,9.60
2023-03-06T14:05:58.875Z,8.77
2023-03-06T14:08:46.021Z,9.50
2023-03-06T14:11:34.215Z,9.07
2023-03-06T14:14:34.132Z,8.07
2023-03-06T14:17:28.761Z,8.10
2023-03-06T14:20:19.372Z,8.70
2023-03-06T14:23:19.909Z,7.37
2023-03-06T14:26:14.991Z,7.00
2023-03-06T14:29:03.372Z,8.03
2023-03-06T14:31:52.735Z,7.37
2023-03-06T14:34:45.430Z,6.13
2023-03-06T14:37:36.599Z,6.50
2023-03-06T14:40:34.377Z,5.93
2023-03-06T14:43:29.330Z,5.63
2023-03-06T14:46:21.320Z,6.10
2023-03-06T14:49:08.750Z,6.40
2023-03-06T14:52:00.518Z,6.37
2023-03-06T14:54:48.435Z,6.80
2023-03-06T14:57:35.539Z,6.27
2023-03-06T15:00:24.768Z,6.27
2023-03-06T15:03:23.975Z,5.20
2023-03-06T15:06:19.275Z,5.87
2023-03-06T15:09:16.749Z,6.10
2023-03-06T15:12:07.976Z,5.63
2023-03-06T15:15:08.019Z,5.87
2023-03-06T15:17:55.273Z,5.87
2023-03-06T15:20:44.452Z,5.60
2023-03-06T15:23:43.210Z,5.27
2023-03-06T15:26:33.332Z,4.93
2023-03-06T15:29:23.080Z,5.13
2023-03-06T15:32:25.327Z,5.17
2023-03-06T15:35:24.575Z,4.87
2023-03-06T15:38:43.371Z,4.70
2023-03-06T15:41:35.692Z,4.50
2023-03-06T15:44:22.636Z,4.60
2023-03-06T15:47:11.828Z,4.43
2023-03-06T15:49:58.831Z,4.63
2023-03-06T15:52:46.885Z,4.10
2023-03-06T15:55:33.922Z,4.50
2023-03-06T15:58:26.809Z,4.20
2023-03-06T16:01:17.606Z,4.10
2023-03-06T16:04:04.759Z,4.87
2023-03-06T16:06:51.735Z,4.80
2023-03-06T16:09:39.635Z,4.43
2023-03-06T16:12:26.803Z,5.07
2023-03-06T16:15:20.510Z,5.00
2023-03-06T16:18:11.593Z,5.17
2023-03-06T16:20:58.586Z,5.33
2023-03-06T16:23:45.511Z,5.33
2023-03-06T16:26:34.897Z,5.10
2023-03-06T16:29:24.747Z,5.30
2023-03-06T16:32:11.721Z,4.90
2023-03-06T16:34:58.697Z,5.33
2023-03-06T16:37:46.276Z,4.83
2023-03-06T16:40:40.850Z,5.50
2023-03-06T16:43:27.753Z,5.40
2023-03-06T16:46:20.289Z,5.33
2023-03-06T16:49:07.632Z,5.40
2023-03-06T16:51:54.852Z,5.50
2023-03-06T16:54:44.233Z,5.57
2023-03-06T16:57:35.715Z,5.07
2023-03-06T17:00:24.737Z,5.07
2023-03-06T17:03:11.841Z,5.47
2023-03-06T17:05:58.794Z,5.77
2023-03-06T17:08:46.680Z,5.60
2023-03-06T17:11:35.969Z,5.47
2023-03-06T17:14:22.961Z,6.37
2023-03-06T17:17:09.896Z,5.87
2023-03-06T17:19:56.958Z,5.90
2023-03-06T17:22:43.927Z,5.53
2023-03-06T17:25:31.472Z,6.17
2023-03-06T17:28:18.799Z,5.50
2023-03-06T17:31:16.297Z,6.00
2023-03-06T17:34:03.479Z,6.33
2023-03-06T17:36:50.771Z,5.57
2023-03-06T17:39:38.946Z,5.90
2023-03-06T17:42:25.907Z,5.73
2023-03-06T17:45:12.923Z,6.27
2023-03-06T17:47:59.941Z,6.43
2023-03-06T17:51:06.110Z,6.13
2023-03-06T17:53:53.225Z,6.30
2023-03-06T17:56:40.207Z,6.40
2023-03-06T17:59:28.084Z,5.87
2023-03-06T18:02:15.764Z,6.00
2023-03-06T18:05:03.204Z,6.17
2023-03-06T18:07:50.277Z,6.33
2023-03-06T18:10:41.855Z,6.13
2023-03-06T18:13:28.946Z,6.33
2023-03-06T18:16:19.296Z,6.20
2023-03-06T18:19:06.316Z,7.13
2023-03-06T18:21:53.264Z,6.83
2023-03-06T18:24:40.325Z,6.90
2023-03-06T18:27:27.299Z,6.70
2023-03-06T18:30:14.497Z,7.00
2023-03-06T18:33:01.668Z,6.90
2023-03-06T18:35:48.616Z,6.40
2023-03-06T18:38:35.668Z,6.90
2023-03-06T18:41:23.138Z,10.70
2023-03-06T18:44:14.508Z,9.17
2023-03-06T18:47:01.468Z,7.40
2023-03-06T18:49:48.384Z,6.90
2023-03-06T18:52:35.570Z,6.50
2023-03-06T18:55:22.520Z,7.23
2023-03-06T18:58:09.468Z,7.13
2023-03-06T19:00:59.176Z,7.17
2023-03-06T19:03:46.779Z,7.17
2023-03-06T19:06:33.802Z,7.27
2023-03-06T19:09:20.878Z,8.03
2023-03-06T19:12:08.712Z,7.60
2023-03-06T19:14:55.815Z,7.20
2023-03-06T19:17:42.731Z,6.97
2023-03-06T19:20:29.636Z,7.37
2023-03-06T19:23:16.612Z,7.40
2023-03-06T19:26:04.197Z,7.03
2023-03-06T19:28:52.459Z,6.83
2023-03-06T19:31:39.552Z,7.20
2023-03-06T19:34:26.744Z,7.93
2023-03-06T19:37:13.711Z,7.57
2023-03-06T19:40:02.657Z,7.70
2023-03-06T19:42:50.237Z,7.27
2023-03-06T19:45:41.896Z,7.53
2023-03-06T19:48:28.955Z,7.47
2023-03-06T19:51:15.881Z,7.73
2023-03-06T19:54:03.307Z,8.10
2023-03-06T19:56:50.596Z,7.80
2023-03-06T19:59:37.684Z,7.63
2023-03-06T20:02:26.574Z,8.30
2023-03-06T20:05:13.541Z,7.63
2023-03-06T20:08:00.490Z,7.93
2023-03-06T20:10:47.532Z,7.73
2023-03-06T20:13:34.457Z,7.37
2023-03-06T20:16:21.421Z,8.30
2023-03-06T20:19:08.640Z,7.80
2023-03-06T20:21:55.842Z,7.67
2023-03-06T20:24:42.802Z,7.00
2023-03-06T20:27:29.736Z,7.93
2023-03-06T20:30:17.126Z,7.27
2023-03-06T20:33:04.160Z,7.60
2023-03-06T20:35:51.152Z,7.83
2023-03-06T20:38:39.024Z,7.47
2023-03-06T20:41:28.528Z,6.87
2023-03-06T20:44:19.429Z,7.70
2023-03-06T20:47:06.649Z,6.90
2023-03-06T20:49:53.735Z,7.13
2023-03-06T20:52:40.931Z,7.50
2023-03-06T20:55:27.933Z,7.90
2023-03-06T20:58:14.881Z,7.10
2023-03-06T21:01:02.538Z,7.40
2023-03-06T21:03:50.418Z,7.23
2023-03-06T21:06:37.747Z,7.23
2023-03-06T21:09:24.688Z,7.60
2023-03-06T21:12:11.665Z,7.43
2023-03-06T21:14:58.995Z,6.70
2023-03-06T21:17:45.911Z,7.20
2023-03-06T21:20:33.712Z,7.47
2023-03-06T21:23:20.670Z,7.17
2023-03-06T21:26:07.755Z,7.43
2023-03-06T21:28:58.000Z,7.00
2023-03-06T21:31:45.084Z,7.50
2023-03-06T21:34:32.070Z,7.47
2023-03-06T21:37:18.997Z,7.63
2023-03-06T21:40:06.712Z,7.87
2023-03-06T21:42:53.674Z,8.20
2023-03-06T21:45:46.229Z,7.37
2023-03-06T21:48:33.431Z,7.17
2023-03-06T21:51:23.346Z,7.93
2023-03-06T21:54:10.451Z,7.33
2023-03-06T21:56:57.863Z,8.03
2023-03-06T21:59:44.788Z,8.30
2023-03-06T22:02:31.779Z,7.90
2023-03-06T22:05:19.117Z,8.10
2023-03-06T22:08:06.058Z,8.83
2023-03-06T22:10:53.049Z,16.93
2023-03-06T22:13:40.629Z,12.53
2023-03-06T22:16:27.754Z,9.37
2023-03-06T22:19:15.549Z,7.77
2023-03-06T22:22:03.694Z,8.07
2023-03-06T22:24:50.644Z,8.27
2023-03-06T22:27:37.592Z,8.07
2023-03-06T22:30:24.580Z,8.60
2023-03-06T22:33:11.677Z,8.23
2023-03-06T22:36:07.831Z,7.97
2023-03-06T22:38:58.281Z,7.67
2023-03-06T22:41:45.240Z,7.87
2023-03-06T22:44:32.178Z,7.90
2023-03-06T22:47:19.109Z,7.43
2023-03-06T22:50:07.595Z,7.20
2023-03-06T22:52:54.524Z,7.17
2023-03-06T22:55:41.503Z,7.37
2023-03-06T22:58:34.463Z,7.47
2023-03-06T23:01:25.054Z,7.57
2023-03-06T23:04:12.244Z,8.07
2023-03-06T23:06:59.204Z,7.00
2023-03-06T23:09:47.011Z,7.30
2023-03-06T23:12:52.618Z,7.27
2023-03-06T23:16:02.456Z,7.60
2023-03-06T23:19:08.191Z,7.57
2023-03-06T23:22:14.297Z,7.70
2023-03-06T23:25:20.025Z,7.50
2023-03-06T23:28:07.591Z,7.13
2023-03-06T23:30:54.637Z,7.50
2023-03-06T23:33:41.756Z,7.47
2023-03-06T23:36:29.779Z,7.40
2023-03-06T23:39:16.752Z,6.93
2023-03-06T23:42:03.926Z,7.20
2023-03-06T23:44:50.867Z,7.47
2023-03-06T23:47:37.885Z,7.10
2023-03-06T23:50:26.098Z,7.60
2023-03-06T23:53:13.345Z,8.03
2023-03-06T23:56:01.129Z,8.30
2023-03-06T23:58:48.213Z,7.77
